01:50
Airports
History
Links
Donate
Help keep this website running!
PayPal
Bitcoin
This page is community maintained. The information is intended for PC simulator navigation or reference.
Always use approved charts for navigation.
EGNX
East MidlandsEdited 07-Mar-2012
East Midlands (EGNX)
Castle Donington, England, United Kingdom
(C)
Lat/Lng:52° 49' 51.6" N / 1° 19' 41.24" W
52.830999 / -1.328121
Elevation:306'ft / 93mMSL
ID / ICAO:EGNX
Runways:1
Longest:09-27
Asphalt 2,881m / 9,451ft
Controlled:Yes
Beacon:White-Green
(Edited 2012-03-07) [ Sign in to Edit ]
METAR01:20 GMT 2017-11-24
Altimeter: 29.68
Visibility: 6.2 statute miles
Wind: 5 knots (from 240°)
Temp: 4°c / 39°f
Humidity: 86.8%

METAR: EGNX 240120Z 24005KT 210V270 CAVOK 04/02 Q1005

(Powered by phpweather)
Airport Radio Frequencies
ATIS: 128.23
Ground: 121.9
Tower: 124
Approach: 134.17
Nearby VORs <50NM
Nearby NDBs
Runway 09 / 27
Dimensions:2880.7 x 46m 9451' x 151'ft
Surface:Asphalt
Edge Lights:High intensity
Runway 09 [A]Runway 27 [B]
Heading:088°TH 268°TH
Lat:
Lng:
52° 49' 50.19"N
1° 20' 58.46"W
52° 49' 53"N
1° 18' 24.01"W
ALS:CalvertCalvert
User Notes and Comments
52° 49' 51.6" N / 1° 19' 41.24" W
Distance To
Airport ID:
Nearby Airports
(C) Nottingham 12.1 NM
EGBN ENE 59°
4 Derby 12.2 NM
EGBD W 279°
(C) Hucknall 13.5 NM
EGNA NNE 19°
4 Newton 17.2 NM
EGXN NE 54°
(U) Tatenhill 18.3 NM
EGBM W 266°
(U) Langar 18.3 NM
EG63 ENE 76°
4 Roddige 19.3 NM
EG85 WSW 244°
VFR Chart
Flight Planning at SkyVector.com